sensor_id;sensor_type;location;lat;lon;timestamp;P1;durP1;ratioP1;P2;durP2;ratioP2
60917;SDS011;46792;38.854;-9.384;2022-11-15T00:01:15;8.35;;;2.10;;
60917;SDS011;46792;38.854;-9.384;2022-11-15T00:03:36;7.97;;;1.70;;
60917;SDS011;46792;38.854;-9.384;2022-11-15T00:06:02;6.22;;;1.52;;
60917;SDS011;46792;38.854;-9.384;2022-11-15T00:08:22;5.07;;;1.50;;
60917;SDS011;46792;38.854;-9.384;2022-11-15T00:10:41;6.20;;;1.48;;
60917;SDS011;46792;38.854;-9.384;2022-11-15T00:13:11;6.07;;;1.48;;
60917;SDS011;46792;38.854;-9.384;2022-11-15T00:15:31;10.32;;;1.50;;
60917;SDS011;46792;38.854;-9.384;2022-11-15T00:17:50;8.07;;;1.00;;
60917;SDS011;46792;38.854;-9.384;2022-11-15T00:20:09;12.80;;;1.75;;
60917;SDS011;46792;38.854;-9.384;2022-11-15T00:22:33;6.65;;;1.08;;
60917;SDS011;46792;38.854;-9.384;2022-11-15T00:24:53;10.65;;;1.73;;
60917;SDS011;46792;38.854;-9.384;2022-11-15T00:27:12;8.73;;;1.40;;
60917;SDS011;46792;38.854;-9.384;2022-11-15T00:29:31;8.20;;;1.10;;
60917;SDS011;46792;38.854;-9.384;2022-11-15T00:31:50;4.85;;;1.70;;
60917;SDS011;46792;38.854;-9.384;2022-11-15T00:34:09;8.48;;;1.80;;
60917;SDS011;46792;38.854;-9.384;2022-11-15T00:36:29;7.68;;;1.70;;
60917;SDS011;46792;38.854;-9.384;2022-11-15T00:38:52;7.75;;;2.05;;
60917;SDS011;46792;38.854;-9.384;2022-11-15T00:41:11;7.13;;;1.73;;
60917;SDS011;46792;38.854;-9.384;2022-11-15T00:43:30;10.63;;;2.20;;
60917;SDS011;46792;38.854;-9.384;2022-11-15T00:45:50;11.45;;;2.65;;
60917;SDS011;46792;38.854;-9.384;2022-11-15T00:48:10;11.68;;;1.75;;
60917;SDS011;46792;38.854;-9.384;2022-11-15T00:50:29;12.32;;;2.13;;
60917;SDS011;46792;38.854;-9.384;2022-11-15T00:52:51;11.88;;;2.10;;
60917;SDS011;46792;38.854;-9.384;2022-11-15T00:55:13;12.95;;;2.30;;
60917;SDS011;46792;38.854;-9.384;2022-11-15T00:57:33;13.25;;;1.90;;
60917;SDS011;46792;38.854;-9.384;2022-11-15T00:59:53;7.68;;;1.48;;
60917;SDS011;46792;38.854;-9.384;2022-11-15T01:02:12;5.38;;;1.38;;
60917;SDS011;46792;38.854;-9.384;2022-11-15T01:04:30;6.22;;;2.05;;
60917;SDS011;46792;38.854;-9.384;2022-11-15T01:06:49;13.15;;;1.52;;
60917;SDS011;46792;38.854;-9.384;2022-11-15T01:09:08;5.22;;;1.55;;
60917;SDS011;46792;38.854;-9.384;2022-11-15T01:11:27;13.80;;;2.38;;
60917;SDS011;46792;38.854;-9.384;2022-11-15T01:13:46;7.38;;;1.23;;
60917;SDS011;46792;38.854;-9.384;2022-11-15T01:16:06;7.65;;;1.65;;
60917;SDS011;46792;38.854;-9.384;2022-11-15T01:18:33;6.90;;;1.50;;
60917;SDS011;46792;38.854;-9.384;2022-11-15T01:20:52;8.80;;;1.40;;
60917;SDS011;46792;38.854;-9.384;2022-11-15T01:23:11;13.63;;;2.05;;
60917;SDS011;46792;38.854;-9.384;2022-11-15T01:25:29;17.83;;;3.80;;
60917;SDS011;46792;38.854;-9.384;2022-11-15T01:27:48;14.20;;;2.13;;
60917;SDS011;46792;38.854;-9.384;2022-11-15T01:30:09;14.27;;;2.13;;
60917;SDS011;46792;38.854;-9.384;2022-11-15T01:32:28;17.15;;;2.42;;
60917;SDS011;46792;38.854;-9.384;2022-11-15T01:34:47;12.73;;;2.08;;
60917;SDS011;46792;38.854;-9.384;2022-11-15T01:37:06;6.55;;;1.90;;
60917;SDS011;46792;38.854;-9.384;2022-11-15T01:39:26;10.25;;;1.95;;
60917;SDS011;46792;38.854;-9.384;2022-11-15T01:41:46;20.25;;;2.55;;
60917;SDS011;46792;38.854;-9.384;2022-11-15T01:46:49;9.55;;;2.28;;
60917;SDS011;46792;38.854;-9.384;2022-11-15T01:49:13;12.82;;;2.17;;
60917;SDS011;46792;38.854;-9.384;2022-11-15T01:51:35;4.20;;;1.63;;
60917;SDS011;46792;38.854;-9.384;2022-11-15T01:53:55;8.73;;;2.10;;
60917;SDS011;46792;38.854;-9.384;2022-11-15T01:56:20;6.57;;;1.20;;
60917;SDS011;46792;38.854;-9.384;2022-11-15T01:58:43;7.20;;;1.33;;
60917;SDS011;46792;38.854;-9.384;2022-11-15T02:01:04;9.90;;;1.90;;
60917;SDS011;46792;38.854;-9.384;2022-11-15T02:03:25;8.13;;;1.70;;
60917;SDS011;46792;38.854;-9.384;2022-11-15T02:05:49;8.30;;;1.52;;
60917;SDS011;46792;38.854;-9.384;2022-11-15T02:08:12;7.68;;;1.58;;
60917;SDS011;46792;38.854;-9.384;2022-11-15T02:10:40;6.78;;;1.95;;
60917;SDS011;46792;38.854;-9.384;2022-11-15T02:12:59;8.93;;;1.67;;
60917;SDS011;46792;38.854;-9.384;2022-11-15T02:15:20;4.75;;;1.75;;
60917;SDS011;46792;38.854;-9.384;2022-11-15T02:20:41;14.30;;;2.42;;
60917;SDS011;46792;38.854;-9.384;2022-11-15T02:28:52;10.50;;;2.67;;
60917;SDS011;46792;38.854;-9.384;2022-11-15T02:36:39;17.83;;;2.90;;
60917;SDS011;46792;38.854;-9.384;2022-11-15T02:44:17;18.02;;;2.55;;
60917;SDS011;46792;38.854;-9.384;2022-11-15T02:46:45;12.95;;;2.40;;
60917;SDS011;46792;38.854;-9.384;2022-11-15T02:49:31;15.23;;;2.97;;
60917;SDS011;46792;38.854;-9.384;2022-11-15T02:51:52;11.50;;;1.98;;
60917;SDS011;46792;38.854;-9.384;2022-11-15T02:54:15;9.10;;;2.47;;
60917;SDS011;46792;38.854;-9.384;2022-11-15T02:56:42;18.08;;;2.90;;
60917;SDS011;46792;38.854;-9.384;2022-11-15T03:01:41;13.23;;;2.20;;
60917;SDS011;46792;38.854;-9.384;2022-11-15T03:07:32;21.85;;;3.13;;
60917;SDS011;46792;38.854;-9.384;2022-11-15T03:12:25;15.77;;;2.90;;
60917;SDS011;46792;38.854;-9.384;2022-11-15T03:17:13;14.70;;;2.60;;
60917;SDS011;46792;38.854;-9.384;2022-11-15T03:22:17;22.88;;;2.85;;
60917;SDS011;46792;38.854;-9.384;2022-11-15T03:24:41;19.38;;;3.30;;
60917;SDS011;46792;38.854;-9.384;2022-11-15T03:27:05;13.88;;;2.53;;
60917;SDS011;46792;38.854;-9.384;2022-11-15T03:29:27;14.50;;;2.05;;
60917;SDS011;46792;38.854;-9.384;2022-11-15T03:31:53;12.57;;;2.80;;
60917;SDS011;46792;38.854;-9.384;2022-11-15T03:34:19;18.63;;;2.90;;
60917;SDS011;46792;38.854;-9.384;2022-11-15T03:37:13;18.63;;;2.78;;
60917;SDS011;46792;38.854;-9.384;2022-11-15T03:39:36;15.15;;;2.30;;
60917;SDS011;46792;38.854;-9.384;2022-11-15T03:42:08;18.85;;;2.25;;
60917;SDS011;46792;38.854;-9.384;2022-11-15T03:49:46;17.35;;;2.33;;
60917;SDS011;46792;38.854;-9.384;2022-11-15T03:52:17;21.75;;;3.50;;
60917;SDS011;46792;38.854;-9.384;2022-11-15T03:54:55;19.27;;;2.83;;
60917;SDS011;46792;38.854;-9.384;2022-11-15T03:57:15;18.55;;;2.80;;
60917;SDS011;46792;38.854;-9.384;2022-11-15T03:59:34;15.50;;;2.80;;
60917;SDS011;46792;38.854;-9.384;2022-11-15T04:01:53;22.50;;;3.58;;
60917;SDS011;46792;38.854;-9.384;2022-11-15T04:04:13;15.57;;;2.70;;
60917;SDS011;46792;38.854;-9.384;2022-11-15T04:06:32;26.40;;;3.53;;
60917;SDS011;46792;38.854;-9.384;2022-11-15T04:08:52;30.40;;;3.17;;
60917;SDS011;46792;38.854;-9.384;2022-11-15T04:11:11;29.90;;;3.08;;
60917;SDS011;46792;38.854;-9.384;2022-11-15T04:13:30;25.35;;;3.50;;
60917;SDS011;46792;38.854;-9.384;2022-11-15T04:15:49;15.90;;;3.00;;
60917;SDS011;46792;38.854;-9.384;2022-11-15T04:18:08;15.98;;;3.42;;
60917;SDS011;46792;38.854;-9.384;2022-11-15T04:20:28;17.67;;;2.58;;
60917;SDS011;46792;38.854;-9.384;2022-11-15T04:23:10;27.77;;;4.70;;
60917;SDS011;46792;38.854;-9.384;2022-11-15T04:25:51;21.00;;;2.80;;
60917;SDS011;46792;38.854;-9.384;2022-11-15T04:28:12;23.90;;;3.03;;
60917;SDS011;46792;38.854;-9.384;2022-11-15T04:30:32;26.55;;;3.58;;
60917;SDS011;46792;38.854;-9.384;2022-11-15T04:32:51;19.17;;;2.92;;
60917;SDS011;46792;38.854;-9.384;2022-11-15T04:35:10;19.15;;;2.85;;
60917;SDS011;46792;38.854;-9.384;2022-11-15T04:37:29;12.90;;;2.65;;
60917;SDS011;46792;38.854;-9.384;2022-11-15T04:43:03;13.30;;;2.60;;
60917;SDS011;46792;38.854;-9.384;2022-11-15T04:45:23;24.05;;;2.47;;
60917;SDS011;46792;38.854;-9.384;2022-11-15T04:47:45;17.92;;;2.97;;
60917;SDS011;46792;38.854;-9.384;2022-11-15T04:50:05;21.13;;;3.15;;
60917;SDS011;46792;38.854;-9.384;2022-11-15T04:52:24;19.13;;;2.67;;
60917;SDS011;46792;38.854;-9.384;2022-11-15T04:54:44;20.25;;;2.83;;
60917;SDS011;46792;38.854;-9.384;2022-11-15T04:57:03;19.52;;;2.42;;
60917;SDS011;46792;38.854;-9.384;2022-11-15T04:59:22;13.35;;;2.47;;
60917;SDS011;46792;38.854;-9.384;2022-11-15T05:04:19;13.43;;;2.83;;
60917;SDS011;46792;38.854;-9.384;2022-11-15T05:06:57;19.60;;;2.83;;
60917;SDS011;46792;38.854;-9.384;2022-11-15T05:09:17;23.55;;;2.92;;
60917;SDS011;46792;38.854;-9.384;2022-11-15T05:11:37;16.27;;;2.75;;
60917;SDS011;46792;38.854;-9.384;2022-11-15T05:13:56;9.70;;;2.00;;
60917;SDS011;46792;38.854;-9.384;2022-11-15T05:16:15;16.40;;;2.58;;
60917;SDS011;46792;38.854;-9.384;2022-11-15T05:21:35;7.72;;;2.15;;
60917;SDS011;46792;38.854;-9.384;2022-11-15T05:23:55;23.30;;;2.55;;
60917;SDS011;46792;38.854;-9.384;2022-11-15T05:26:15;13.75;;;2.38;;
60917;SDS011;46792;38.854;-9.384;2022-11-15T05:28:39;17.15;;;1.88;;
60917;SDS011;46792;38.854;-9.384;2022-11-15T05:31:11;10.25;;;2.20;;
60917;SDS011;46792;38.854;-9.384;2022-11-15T05:33:33;14.38;;;4.35;;
60917;SDS011;46792;38.854;-9.384;2022-11-15T05:36:29;12.88;;;2.20;;
60917;SDS011;46792;38.854;-9.384;2022-11-15T05:39:10;19.63;;;2.63;;
60917;SDS011;46792;38.854;-9.384;2022-11-15T05:41:33;17.15;;;2.42;;
60917;SDS011;46792;38.854;-9.384;2022-11-15T05:43:58;11.02;;;1.67;;
60917;SDS011;46792;38.854;-9.384;2022-11-15T05:46:19;9.60;;;2.55;;
60917;SDS011;46792;38.854;-9.384;2022-11-15T05:48:38;21.50;;;2.60;;
60917;SDS011;46792;38.854;-9.384;2022-11-15T05:56:21;8.50;;;1.90;;
60917;SDS011;46792;38.854;-9.384;2022-11-15T05:58:40;13.60;;;2.50;;
60917;SDS011;46792;38.854;-9.384;2022-11-15T06:04:09;12.13;;;2.53;;
60917;SDS011;46792;38.854;-9.384;2022-11-15T06:06:28;13.02;;;2.30;;
60917;SDS011;46792;38.854;-9.384;2022-11-15T06:08:47;19.42;;;2.80;;
60917;SDS011;46792;38.854;-9.384;2022-11-15T06:11:06;11.45;;;2.05;;
60917;SDS011;46792;38.854;-9.384;2022-11-15T06:13:33;22.30;;;2.50;;
60917;SDS011;46792;38.854;-9.384;2022-11-15T06:15:55;13.30;;;1.88;;
60917;SDS011;46792;38.854;-9.384;2022-11-15T06:18:15;11.70;;;2.40;;
60917;SDS011;46792;38.854;-9.384;2022-11-15T06:20:53;11.88;;;2.40;;
60917;SDS011;46792;38.854;-9.384;2022-11-15T06:26:27;13.52;;;2.25;;
60917;SDS011;46792;38.854;-9.384;2022-11-15T06:28:49;16.52;;;2.67;;
60917;SDS011;46792;38.854;-9.384;2022-11-15T06:37:02;25.70;;;4.25;;
60917;SDS011;46792;38.854;-9.384;2022-11-15T06:39:25;18.40;;;3.05;;
60917;SDS011;46792;38.854;-9.384;2022-11-15T06:41:45;14.70;;;1.95;;
60917;SDS011;46792;38.854;-9.384;2022-11-15T06:44:04;10.15;;;1.80;;
60917;SDS011;46792;38.854;-9.384;2022-11-15T06:46:23;16.33;;;2.38;;
60917;SDS011;46792;38.854;-9.384;2022-11-15T06:51:58;19.65;;;2.03;;
60917;SDS011;46792;38.854;-9.384;2022-11-15T06:54:19;20.70;;;2.17;;
60917;SDS011;46792;38.854;-9.384;2022-11-15T06:56:39;15.48;;;2.53;;
60917;SDS011;46792;38.854;-9.384;2022-11-15T06:58:58;11.82;;;2.08;;
60917;SDS011;46792;38.854;-9.384;2022-11-15T07:01:20;13.27;;;1.98;;
60917;SDS011;46792;38.854;-9.384;2022-11-15T07:03:40;13.88;;;2.20;;
60917;SDS011;46792;38.854;-9.384;2022-11-15T07:06:00;16.27;;;2.28;;
60917;SDS011;46792;38.854;-9.384;2022-11-15T07:08:20;17.98;;;1.80;;
60917;SDS011;46792;38.854;-9.384;2022-11-15T07:10:40;15.00;;;2.38;;
60917;SDS011;46792;38.854;-9.384;2022-11-15T07:13:18;23.23;;;2.53;;
60917;SDS011;46792;38.854;-9.384;2022-11-15T07:15:37;14.85;;;2.20;;
60917;SDS011;46792;38.854;-9.384;2022-11-15T07:17:59;27.98;;;3.25;;
60917;SDS011;46792;38.854;-9.384;2022-11-15T07:20:20;21.40;;;2.10;;
60917;SDS011;46792;38.854;-9.384;2022-11-15T07:22:40;14.82;;;2.40;;
60917;SDS011;46792;38.854;-9.384;2022-11-15T07:24:59;22.75;;;2.50;;
60917;SDS011;46792;38.854;-9.384;2022-11-15T07:27:18;24.67;;;4.53;;
60917;SDS011;46792;38.854;-9.384;2022-11-15T07:29:40;17.90;;;2.28;;
60917;SDS011;46792;38.854;-9.384;2022-11-15T07:31:59;11.32;;;2.13;;
60917;SDS011;46792;38.854;-9.384;2022-11-15T07:34:18;18.77;;;2.70;;
60917;SDS011;46792;38.854;-9.384;2022-11-15T07:36:37;16.95;;;2.45;;
60917;SDS011;46792;38.854;-9.384;2022-11-15T07:38:56;22.45;;;2.72;;
60917;SDS011;46792;38.854;-9.384;2022-11-15T07:41:15;16.83;;;3.33;;
60917;SDS011;46792;38.854;-9.384;2022-11-15T07:43:35;10.13;;;2.40;;
60917;SDS011;46792;38.854;-9.384;2022-11-15T07:45:54;22.25;;;3.20;;
60917;SDS011;46792;38.854;-9.384;2022-11-15T07:48:18;25.83;;;2.58;;
60917;SDS011;46792;38.854;-9.384;2022-11-15T07:50:42;16.52;;;2.65;;
60917;SDS011;46792;38.854;-9.384;2022-11-15T07:53:03;9.10;;;2.50;;
60917;SDS011;46792;38.854;-9.384;2022-11-15T07:55:23;20.27;;;4.32;;
60917;SDS011;46792;38.854;-9.384;2022-11-15T07:57:43;10.25;;;2.70;;
60917;SDS011;46792;38.854;-9.384;2022-11-15T08:00:03;20.27;;;2.30;;
60917;SDS011;46792;38.854;-9.384;2022-11-15T08:02:24;24.88;;;5.38;;
60917;SDS011;46792;38.854;-9.384;2022-11-15T08:04:43;22.35;;;2.50;;
60917;SDS011;46792;38.854;-9.384;2022-11-15T08:07:02;19.15;;;3.25;;
60917;SDS011;46792;38.854;-9.384;2022-11-15T08:09:21;17.85;;;2.60;;
60917;SDS011;46792;38.854;-9.384;2022-11-15T08:11:40;17.58;;;2.35;;
60917;SDS011;46792;38.854;-9.384;2022-11-15T08:13:59;17.45;;;2.75;;
60917;SDS011;46792;38.854;-9.384;2022-11-15T08:16:18;17.60;;;3.03;;
60917;SDS011;46792;38.854;-9.384;2022-11-15T08:18:37;26.73;;;3.85;;
60917;SDS011;46792;38.854;-9.384;2022-11-15T08:21:00;17.52;;;2.78;;
60917;SDS011;46792;38.854;-9.384;2022-11-15T08:23:19;12.50;;;2.72;;
60917;SDS011;46792;38.854;-9.384;2022-11-15T08:25:38;20.52;;;2.55;;
60917;SDS011;46792;38.854;-9.384;2022-11-15T08:27:59;23.80;;;3.28;;
60917;SDS011;46792;38.854;-9.384;2022-11-15T08:30:19;13.98;;;3.03;;
60917;SDS011;46792;38.854;-9.384;2022-11-15T08:32:39;15.98;;;2.80;;
60917;SDS011;46792;38.854;-9.384;2022-11-15T08:34:58;21.42;;;3.67;;
60917;SDS011;46792;38.854;-9.384;2022-11-15T08:37:18;16.88;;;3.17;;
60917;SDS011;46792;38.854;-9.384;2022-11-15T08:39:37;31.17;;;3.38;;
60917;SDS011;46792;38.854;-9.384;2022-11-15T08:41:56;23.48;;;4.65;;
60917;SDS011;46792;38.854;-9.384;2022-11-15T08:44:15;20.10;;;3.15;;
60917;SDS011;46792;38.854;-9.384;2022-11-15T08:46:34;27.73;;;3.95;;
60917;SDS011;46792;38.854;-9.384;2022-11-15T08:48:53;34.38;;;3.58;;
60917;SDS011;46792;38.854;-9.384;2022-11-15T08:51:12;28.20;;;4.07;;
60917;SDS011;46792;38.854;-9.384;2022-11-15T08:53:35;22.65;;;2.60;;
60917;SDS011;46792;38.854;-9.384;2022-11-15T08:55:53;21.70;;;4.25;;
60917;SDS011;46792;38.854;-9.384;2022-11-15T08:58:16;20.80;;;3.92;;
60917;SDS011;46792;38.854;-9.384;2022-11-15T09:00:35;20.58;;;3.75;;
60917;SDS011;46792;38.854;-9.384;2022-11-15T09:02:54;15.35;;;2.17;;
60917;SDS011;46792;38.854;-9.384;2022-11-15T09:05:16;20.40;;;3.72;;
60917;SDS011;46792;38.854;-9.384;2022-11-15T09:07:37;25.58;;;4.25;;
60917;SDS011;46792;38.854;-9.384;2022-11-15T09:09:56;27.13;;;3.33;;
60917;SDS011;46792;38.854;-9.384;2022-11-15T09:12:15;26.20;;;4.47;;
60917;SDS011;46792;38.854;-9.384;2022-11-15T09:14:34;31.38;;;4.63;;
60917;SDS011;46792;38.854;-9.384;2022-11-15T09:16:53;41.60;;;6.40;;
60917;SDS011;46792;38.854;-9.384;2022-11-15T09:19:12;27.73;;;7.43;;
60917;SDS011;46792;38.854;-9.384;2022-11-15T09:21:33;26.67;;;6.55;;
60917;SDS011;46792;38.854;-9.384;2022-11-15T09:23:52;29.50;;;5.60;;
60917;SDS011;46792;38.854;-9.384;2022-11-15T09:26:12;29.42;;;7.10;;
60917;SDS011;46792;38.854;-9.384;2022-11-15T09:28:31;36.90;;;8.05;;
60917;SDS011;46792;38.854;-9.384;2022-11-15T09:30:51;27.83;;;7.65;;
60917;SDS011;46792;38.854;-9.384;2022-11-15T09:33:10;36.92;;;7.20;;
60917;SDS011;46792;38.854;-9.384;2022-11-15T09:35:31;28.60;;;5.53;;
60917;SDS011;46792;38.854;-9.384;2022-11-15T09:37:50;25.83;;;4.75;;
60917;SDS011;46792;38.854;-9.384;2022-11-15T09:40:09;23.02;;;6.57;;
60917;SDS011;46792;38.854;-9.384;2022-11-15T09:52:41;26.42;;;4.47;;
60917;SDS011;46792;38.854;-9.384;2022-11-15T09:54:46;23.42;;;3.90;;
60917;SDS011;46792;38.854;-9.384;2022-11-15T09:56:49;24.40;;;4.43;;
60917;SDS011;46792;38.854;-9.384;2022-11-15T10:00:51;27.48;;;4.05;;
60917;SDS011;46792;38.854;-9.384;2022-11-15T10:05:03;23.50;;;3.33;;
60917;SDS011;46792;38.854;-9.384;2022-11-15T10:11:57;31.75;;;3.22;;
60917;SDS011;46792;38.854;-9.384;2022-11-15T10:14:01;19.33;;;2.72;;
60917;SDS011;46792;38.854;-9.384;2022-11-15T10:18:21;18.08;;;3.70;;
60917;SDS011;46792;38.854;-9.384;2022-11-15T10:20:57;18.40;;;3.35;;
60917;SDS011;46792;38.854;-9.384;2022-11-15T10:23:00;22.75;;;3.50;;
60917;SDS011;46792;38.854;-9.384;2022-11-15T10:27:15;30.05;;;3.70;;
60917;SDS011;46792;38.854;-9.384;2022-11-15T10:29:18;25.50;;;4.10;;
60917;SDS011;46792;38.854;-9.384;2022-11-15T10:31:24;21.52;;;3.25;;
60917;SDS011;46792;38.854;-9.384;2022-11-15T10:33:30;20.98;;;3.92;;
60917;SDS011;46792;38.854;-9.384;2022-11-15T10:35:36;31.15;;;4.10;;
60917;SDS011;46792;38.854;-9.384;2022-11-15T10:37:37;22.52;;;3.40;;
60917;SDS011;46792;38.854;-9.384;2022-11-15T10:39:38;29.10;;;4.40;;
60917;SDS011;46792;38.854;-9.384;2022-11-15T10:41:39;21.05;;;3.05;;
60917;SDS011;46792;38.854;-9.384;2022-11-15T10:43:42;24.42;;;4.75;;
60917;SDS011;46792;38.854;-9.384;2022-11-15T10:45:43;27.45;;;3.22;;
60917;SDS011;46792;38.854;-9.384;2022-11-15T10:47:44;28.85;;;3.08;;
60917;SDS011;46792;38.854;-9.384;2022-11-15T10:49:59;25.00;;;4.22;;
60917;SDS011;46792;38.854;-9.384;2022-11-15T10:52:02;15.40;;;3.53;;
60917;SDS011;46792;38.854;-9.384;2022-11-15T10:54:18;14.77;;;3.60;;
60917;SDS011;46792;38.854;-9.384;2022-11-15T10:56:25;30.88;;;4.03;;
60917;SDS011;46792;38.854;-9.384;2022-11-15T11:00:32;27.70;;;4.35;;
60917;SDS011;46792;38.854;-9.384;2022-11-15T11:04:54;25.85;;;3.92;;
60917;SDS011;46792;38.854;-9.384;2022-11-15T11:06:56;31.33;;;4.50;;
60917;SDS011;46792;38.854;-9.384;2022-11-15T11:09:02;26.83;;;3.75;;
60917;SDS011;46792;38.854;-9.384;2022-11-15T11:11:05;25.67;;;4.00;;
60917;SDS011;46792;38.854;-9.384;2022-11-15T11:13:14;41.08;;;7.40;;
60917;SDS011;46792;38.854;-9.384;2022-11-15T11:15:22;24.17;;;3.78;;
60917;SDS011;46792;38.854;-9.384;2022-11-15T11:30:29;18.13;;;3.60;;
60917;SDS011;46792;38.854;-9.384;2022-11-15T11:47:31;30.27;;;4.07;;
60917;SDS011;46792;38.854;-9.384;2022-11-15T11:49:50;28.58;;;3.63;;
60917;SDS011;46792;38.854;-9.384;2022-11-15T11:52:03;25.83;;;4.32;;
60917;SDS011;46792;38.854;-9.384;2022-11-15T11:56:17;29.70;;;4.13;;
60917;SDS011;46792;38.854;-9.384;2022-11-15T12:00:46;39.47;;;4.20;;
60917;SDS011;46792;38.854;-9.384;2022-11-15T12:05:10;22.05;;;3.85;;
60917;SDS011;46792;38.854;-9.384;2022-11-15T12:09:39;28.77;;;3.47;;
60917;SDS011;46792;38.854;-9.384;2022-11-15T12:11:56;22.63;;;4.07;;
60917;SDS011;46792;38.854;-9.384;2022-11-15T12:13:59;28.38;;;4.13;;
60917;SDS011;46792;38.854;-9.384;2022-11-15T12:18:22;32.10;;;4.10;;
60917;SDS011;46792;38.854;-9.384;2022-11-15T12:20:23;33.40;;;4.30;;
60917;SDS011;46792;38.854;-9.384;2022-11-15T12:25:15;30.80;;;4.22;;
60917;SDS011;46792;38.854;-9.384;2022-11-15T12:27:41;37.10;;;4.60;;
60917;SDS011;46792;38.854;-9.384;2022-11-15T12:29:51;32.90;;;5.00;;
60917;SDS011;46792;38.854;-9.384;2022-11-15T12:31:56;25.98;;;4.15;;
60917;SDS011;46792;38.854;-9.384;2022-11-15T12:34:01;32.95;;;4.63;;
60917;SDS011;46792;38.854;-9.384;2022-11-15T12:40:28;27.65;;;4.22;;
60917;SDS011;46792;38.854;-9.384;2022-11-15T12:48:47;19.45;;;4.28;;
60917;SDS011;46792;38.854;-9.384;2022-11-15T12:58:57;31.02;;;4.20;;
60917;SDS011;46792;38.854;-9.384;2022-11-15T13:00:59;34.45;;;4.72;;
60917;SDS011;46792;38.854;-9.384;2022-11-15T13:03:32;29.38;;;4.57;;
60917;SDS011;46792;38.854;-9.384;2022-11-15T13:09:50;38.03;;;4.05;;
60917;SDS011;46792;38.854;-9.384;2022-11-15T13:11:51;29.42;;;4.20;;
60917;SDS011;46792;38.854;-9.384;2022-11-15T13:13:52;30.73;;;4.35;;
60917;SDS011;46792;38.854;-9.384;2022-11-15T13:20:44;29.73;;;4.80;;
60917;SDS011;46792;38.854;-9.384;2022-11-15T13:22:46;39.45;;;4.75;;
60917;SDS011;46792;38.854;-9.384;2022-11-15T13:24:51;22.60;;;4.15;;
60917;SDS011;46792;38.854;-9.384;2022-11-15T13:26:52;25.50;;;5.43;;
60917;SDS011;46792;38.854;-9.384;2022-11-15T13:28:53;23.52;;;3.25;;
60917;SDS011;46792;38.854;-9.384;2022-11-15T13:30:56;26.45;;;3.28;;
60917;SDS011;46792;38.854;-9.384;2022-11-15T13:33:17;23.23;;;3.80;;
60917;SDS011;46792;38.854;-9.384;2022-11-15T13:35:38;17.75;;;2.97;;
60917;SDS011;46792;38.854;-9.384;2022-11-15T13:37:40;27.08;;;6.47;;
60917;SDS011;46792;38.854;-9.384;2022-11-15T13:39:41;26.58;;;4.32;;
60917;SDS011;46792;38.854;-9.384;2022-11-15T13:41:45;29.38;;;4.45;;
60917;SDS011;46792;38.854;-9.384;2022-11-15T13:43:50;20.60;;;3.38;;
60917;SDS011;46792;38.854;-9.384;2022-11-15T13:46:09;28.67;;;4.80;;
60917;SDS011;46792;38.854;-9.384;2022-11-15T13:48:12;30.67;;;4.18;;
60917;SDS011;46792;38.854;-9.384;2022-11-15T13:50:13;19.60;;;3.67;;
60917;SDS011;46792;38.854;-9.384;2022-11-15T13:52:14;13.50;;;2.85;;
60917;SDS011;46792;38.854;-9.384;2022-11-15T13:56:33;4.20;;;1.98;;
60917;SDS011;46792;38.854;-9.384;2022-11-15T13:58:37;14.15;;;2.95;;
60917;SDS011;46792;38.854;-9.384;2022-11-15T14:00:40;17.00;;;2.33;;
60917;SDS011;46792;38.854;-9.384;2022-11-15T14:02:43;10.43;;;2.03;;
60917;SDS011;46792;38.854;-9.384;2022-11-15T14:04:53;17.42;;;2.60;;
60917;SDS011;46792;38.854;-9.384;2022-11-15T14:07:05;13.07;;;2.55;;
60917;SDS011;46792;38.854;-9.384;2022-11-15T14:11:19;10.60;;;2.28;;
60917;SDS011;46792;38.854;-9.384;2022-11-15T14:13:27;11.40;;;2.30;;
60917;SDS011;46792;38.854;-9.384;2022-11-15T14:17:41;16.02;;;2.92;;
60917;SDS011;46792;38.854;-9.384;2022-11-15T14:19:42;15.60;;;2.50;;
60917;SDS011;46792;38.854;-9.384;2022-11-15T14:24:19;13.10;;;2.40;;
60917;SDS011;46792;38.854;-9.384;2022-11-15T14:26:31;9.55;;;1.70;;
60917;SDS011;46792;38.854;-9.384;2022-11-15T14:28:33;7.32;;;1.52;;
60917;SDS011;46792;38.854;-9.384;2022-11-15T14:30:38;5.28;;;1.55;;
60917;SDS011;46792;38.854;-9.384;2022-11-15T14:32:49;6.18;;;1.50;;
60917;SDS011;46792;38.854;-9.384;2022-11-15T14:35:09;3.92;;;1.90;;
60917;SDS011;46792;38.854;-9.384;2022-11-15T14:37:24;1.67;;;0.70;;
60917;SDS011;46792;38.854;-9.384;2022-11-15T14:39:31;2.22;;;0.73;;
60917;SDS011;46792;38.854;-9.384;2022-11-15T14:41:34;0.70;;;0.70;;
60917;SDS011;46792;38.854;-9.384;2022-11-15T14:43:39;3.45;;;0.60;;
60917;SDS011;46792;38.854;-9.384;2022-11-15T14:45:40;5.00;;;0.60;;
60917;SDS011;46792;38.854;-9.384;2022-11-15T14:47:41;2.67;;;0.40;;
60917;SDS011;46792;38.854;-9.384;2022-11-15T14:49:42;15.68;;;1.10;;
60917;SDS011;46792;38.854;-9.384;2022-11-15T14:51:43;12.75;;;1.05;;
60917;SDS011;46792;38.854;-9.384;2022-11-15T14:53:47;11.48;;;1.45;;
60917;SDS011;46792;38.854;-9.384;2022-11-15T14:55:48;7.20;;;1.20;;
60917;SDS011;46792;38.854;-9.384;2022-11-15T14:57:52;13.70;;;1.20;;
60917;SDS011;46792;38.854;-9.384;2022-11-15T14:59:53;5.32;;;1.08;;
60917;SDS011;46792;38.854;-9.384;2022-11-15T15:01:53;10.90;;;1.73;;
60917;SDS011;46792;38.854;-9.384;2022-11-15T15:03:57;7.57;;;1.00;;
60917;SDS011;46792;38.854;-9.384;2022-11-15T15:05:58;9.77;;;1.73;;
60917;SDS011;46792;38.854;-9.384;2022-11-15T15:07:59;7.60;;;1.30;;
60917;SDS011;46792;38.854;-9.384;2022-11-15T15:10:00;6.22;;;1.38;;
60917;SDS011;46792;38.854;-9.384;2022-11-15T15:12:00;8.65;;;1.48;;
60917;SDS011;46792;38.854;-9.384;2022-11-15T15:14:01;3.47;;;1.13;;
60917;SDS011;46792;38.854;-9.384;2022-11-15T15:16:02;12.18;;;1.63;;
60917;SDS011;46792;38.854;-9.384;2022-11-15T15:18:03;28.30;;;1.80;;
60917;SDS011;46792;38.854;-9.384;2022-11-15T15:20:05;23.20;;;1.80;;
60917;SDS011;46792;38.854;-9.384;2022-11-15T15:22:08;98.53;;;4.07;;
60917;SDS011;46792;38.854;-9.384;2022-11-15T15:24:19;57.72;;;3.78;;
60917;SDS011;46792;38.854;-9.384;2022-11-15T15:26:20;37.25;;;2.33;;
60917;SDS011;46792;38.854;-9.384;2022-11-15T15:28:25;22.92;;;2.17;;
60917;SDS011;46792;38.854;-9.384;2022-11-15T15:30:27;175.82;;;4.72;;
60917;SDS011;46792;38.854;-9.384;2022-11-15T15:32:31;71.13;;;4.07;;
60917;SDS011;46792;38.854;-9.384;2022-11-15T15:34:31;9.98;;;2.03;;
60917;SDS011;46792;38.854;-9.384;2022-11-15T15:36:32;19.55;;;2.65;;
60917;SDS011;46792;38.854;-9.384;2022-11-15T15:38:33;22.00;;;3.30;;
60917;SDS011;46792;38.854;-9.384;2022-11-15T15:40:33;19.05;;;2.45;;
60917;SDS011;46792;38.854;-9.384;2022-11-15T15:42:34;43.40;;;3.55;;
60917;SDS011;46792;38.854;-9.384;2022-11-15T15:44:35;63.05;;;4.60;;
60917;SDS011;46792;38.854;-9.384;2022-11-15T15:46:37;17.60;;;3.58;;
60917;SDS011;46792;38.854;-9.384;2022-11-15T15:48:37;7.72;;;2.30;;
60917;SDS011;46792;38.854;-9.384;2022-11-15T15:50:41;45.40;;;3.70;;
60917;SDS011;46792;38.854;-9.384;2022-11-15T15:52:46;135.27;;;3.63;;
60917;SDS011;46792;38.854;-9.384;2022-11-15T15:54:52;245.85;;;8.80;;
60917;SDS011;46792;38.854;-9.384;2022-11-15T15:56:56;14.98;;;2.60;;
60917;SDS011;46792;38.854;-9.384;2022-11-15T15:58:57;12.50;;;1.85;;
60917;SDS011;46792;38.854;-9.384;2022-11-15T16:00:57;34.03;;;2.55;;
60917;SDS011;46792;38.854;-9.384;2022-11-15T16:02:58;16.55;;;2.15;;
60917;SDS011;46792;38.854;-9.384;2022-11-15T16:04:59;11.52;;;2.38;;
60917;SDS011;46792;38.854;-9.384;2022-11-15T16:07:00;20.23;;;2.35;;
60917;SDS011;46792;38.854;-9.384;2022-11-15T16:09:02;14.40;;;2.80;;
60917;SDS011;46792;38.854;-9.384;2022-11-15T16:11:03;11.60;;;1.90;;